Time;durP1;ratioP1;P1;durP2;ratioP2;P2;SDS_P1;SDS_P2;PMS_P1;PMS_P2;Temp;Humidity;BMP_temperature;BMP_pressure;BME280_temperature;BME280_humidity;BME280_pressure;Samples;Min_cycle;Max_cycle;Signal;HPM_P1;HPM_P2
2021/08/20 00:01:09;;;;;;;6.45;5.03;;;17.60;99.90;;;;;;5062063;28;20486;-76
2021/08/20 00:03:35;;;;;;;7.38;5.30;;;17.60;99.90;;;;;;5061460;28;20049;-76
2021/08/20 00:06:02;;;;;;;8.13;5.13;;;17.60;99.90;;;;;;5051526;28;20489;-76
2021/08/20 00:08:28;;;;;;;7.18;5.03;;;17.60;99.90;;;;;;5056075;28;20045;-76
2021/08/20 00:10:54;;;;;;;6.63;5.30;;;17.60;99.90;;;;;;5052624;28;20025;-75
2021/08/20 00:13:20;;;;;;;7.88;5.00;;;17.60;99.90;;;;;;5052888;28;20029;-75
2021/08/20 00:15:46;;;;;;;9.27;5.20;;;17.60;99.90;;;;;;5052175;28;20107;-75
2021/08/20 00:18:13;;;;;;;6.80;4.68;;;17.60;99.90;;;;;;5069995;28;20032;-75
2021/08/20 00:20:39;;;;;;;8.07;5.13;;;17.70;99.90;;;;;;5055875;28;20025;-75
2021/08/20 00:23:05;;;;;;;6.10;4.97;;;17.70;99.90;;;;;;5062688;28;20123;-74
2021/08/20 00:25:32;;;;;;;7.25;5.35;;;17.70;99.90;;;;;;5064974;28;20517;-76
2021/08/20 00:27:58;;;;;;;6.28;5.05;;;17.70;99.90;;;;;;5053894;28;20037;-75
2021/08/20 00:30:24;;;;;;;7.05;5.30;;;17.70;99.90;;;;;;5054444;28;20466;-76
2021/08/20 00:32:50;;;;;;;7.03;5.40;;;17.70;99.90;;;;;;5053133;28;20386;-75
2021/08/20 00:35:19;;;;;;;8.43;5.13;;;17.80;99.90;;;;;;5057362;28;20608;-76
2021/08/20 00:37:45;;;;;;;7.43;5.45;;;17.70;99.90;;;;;;5055835;28;20033;-74
2021/08/20 00:40:12;;;;;;;6.72;4.30;;;17.80;99.90;;;;;;5057229;28;20045;-74
2021/08/20 00:42:38;;;;;;;7.32;5.57;;;17.80;99.90;;;;;;5055437;28;20041;-73
2021/08/20 00:45:07;;;;;;;7.38;4.95;;;17.80;99.90;;;;;;5056489;28;20036;-74
2021/08/20 00:47:33;;;;;;;5.38;4.15;;;17.80;99.90;;;;;;5056265;28;20052;-75
2021/08/20 00:50:03;;;;;;;5.63;4.57;;;17.80;99.90;;;;;;5054842;28;20033;-75
2021/08/20 00:52:30;;;;;;;6.75;4.28;;;17.80;99.90;;;;;;5056909;28;20363;-76
2021/08/20 00:54:57;;;;;;;7.88;5.60;;;17.90;99.90;;;;;;5056855;28;20036;-75
2021/08/20 00:57:24;;;;;;;6.18;4.75;;;17.80;99.90;;;;;;5062468;28;20387;-76
2021/08/20 00:59:50;;;;;;;6.00;4.60;;;17.90;99.90;;;;;;5055633;28;20040;-76
2021/08/20 01:02:16;;;;;;;4.97;4.03;;;17.90;99.90;;;;;;5056978;28;20048;-76
2021/08/20 01:04:43;;;;;;;7.20;5.00;;;17.90;99.90;;;;;;5056841;28;20052;-75
2021/08/20 01:07:09;;;;;;;5.28;4.45;;;17.80;99.90;;;;;;5056920;28;20025;-76
2021/08/20 01:09:37;;;;;;;5.80;4.75;;;17.80;99.90;;;;;;5059745;28;20064;-76
2021/08/20 01:12:05;;;;;;;6.10;4.05;;;17.80;99.90;;;;;;5093325;28;20068;-74
2021/08/20 01:14:36;;;;;;;6.45;4.53;;;17.80;99.90;;;;;;5072780;28;20055;-75
2021/08/20 01:17:05;;;;;;;4.63;3.65;;;17.80;99.90;;;;;;5074100;28;20051;-75
2021/08/20 01:19:32;;;;;;;7.78;4.97;;;17.80;99.90;;;;;;5073912;28;20033;-75
2021/08/20 01:22:06;;;;;;;6.85;4.20;;;17.80;99.90;;;;;;5058418;28;20049;-75
2021/08/20 01:24:39;;;;;;;5.88;3.92;;;17.80;99.90;;;;;;5058678;28;20049;-75
2021/08/20 01:27:06;;;;;;;5.45;3.38;;;17.80;99.90;;;;;;5059859;28;20053;-75
2021/08/20 01:29:33;;;;;;;6.30;3.70;;;17.70;99.90;;;;;;5062455;28;20040;-76
2021/08/20 01:32:01;;;;;;;6.47;4.82;;;17.70;99.90;;;;;;5066303;28;20045;-77
2021/08/20 01:34:28;;;;;;;6.75;4.13;;;17.70;99.90;;;;;;5077442;28;20049;-75
2021/08/20 01:36:55;;;;;;;4.72;4.25;;;17.70;99.90;;;;;;5073445;28;20068;-75
2021/08/20 01:39:21;;;;;;;5.72;3.58;;;17.70;99.90;;;;;;5058555;28;20049;-75
2021/08/20 01:41:48;;;;;;;6.40;4.03;;;17.70;99.90;;;;;;5062259;28;20036;-74
2021/08/20 01:44:17;;;;;;;6.25;3.95;;;17.70;99.90;;;;;;5057068;28;20049;-75
2021/08/20 01:46:43;;;;;;;9.00;4.00;;;17.70;99.90;;;;;;5064131;28;20041;-75
2021/08/20 01:49:12;;;;;;;5.32;3.70;;;17.70;99.90;;;;;;5060005;28;20397;-74
2021/08/20 01:51:39;;;;;;;4.95;3.53;;;17.70;99.90;;;;;;5057342;28;20521;-75
2021/08/20 01:54:05;;;;;;;5.68;3.55;;;17.70;99.90;;;;;;5091258;28;20055;-74
2021/08/20 01:56:35;;;;;;;5.13;3.88;;;17.70;99.90;;;;;;5057670;28;20497;-75
2021/08/20 01:59:09;;;;;;;6.30;4.00;;;17.70;99.90;;;;;;5068586;28;20045;-75
2021/08/20 02:01:35;;;;;;;5.53;3.55;;;17.60;99.90;;;;;;5091064;28;20056;-75
2021/08/20 02:04:05;;;;;;;5.25;3.40;;;17.60;99.90;;;;;;5076698;28;20051;-75
2021/08/20 02:06:33;;;;;;;4.93;3.80;;;17.60;99.90;;;;;;5062742;28;20048;-76
2021/08/20 02:09:02;;;;;;;5.95;3.78;;;17.60;99.90;;;;;;5056815;28;20051;-75
2021/08/20 02:11:31;;;;;;;5.70;3.65;;;17.60;99.90;;;;;;5090057;28;20047;-75
2021/08/20 02:13:57;;;;;;;5.97;3.75;;;17.60;99.90;;;;;;5068956;28;20048;-74
2021/08/20 02:16:26;;;;;;;4.65;3.67;;;17.60;99.90;;;;;;5067729;28;20045;-75
2021/08/20 02:18:54;;;;;;;6.57;3.97;;;17.60;99.90;;;;;;5072730;28;20041;-73
2021/08/20 02:21:22;;;;;;;5.32;4.32;;;17.60;99.90;;;;;;5057453;28;20479;-75
2021/08/20 02:23:51;;;;;;;5.22;3.80;;;17.60;99.90;;;;;;5071044;28;20045;-74
2021/08/20 02:26:19;;;;;;;7.28;4.63;;;17.60;99.90;;;;;;5060738;28;20052;-74
2021/08/20 02:28:46;;;;;;;6.03;4.15;;;17.60;99.90;;;;;;5065972;28;20033;-75
2021/08/20 02:31:12;;;;;;;4.97;3.90;;;17.60;99.90;;;;;;5073136;28;20040;-75
2021/08/20 02:33:43;;;;;;;6.35;3.95;;;17.50;99.90;;;;;;5068284;28;20044;-76
2021/08/20 02:36:11;;;;;;;6.43;3.92;;;17.40;99.90;;;;;;5062887;28;20056;-74
2021/08/20 02:38:39;;;;;;;6.22;4.28;;;17.40;99.90;;;;;;5075649;28;20032;-75
2021/08/20 02:41:05;;;;;;;7.35;4.07;;;17.40;99.90;;;;;;5077418;28;20044;-74
2021/08/20 02:43:32;;;;;;;6.65;3.92;;;17.40;99.90;;;;;;5068166;28;20056;-75
2021/08/20 02:46:01;;;;;;;7.88;4.60;;;17.30;99.90;;;;;;5098872;28;20067;-73
2021/08/20 02:48:27;;;;;;;9.50;4.28;;;17.30;99.90;;;;;;5063428;28;20049;-75
2021/08/20 02:50:55;;;;;;;8.20;4.20;;;17.30;99.90;;;;;;5085438;28;20474;-75
2021/08/20 02:53:25;;;;;;;;;;;17.30;99.90;;;;;;5053192;28;20041;-75
2021/08/20 02:55:54;;;;;;;5.07;4.05;;;17.20;99.90;;;;;;5085496;28;19916;-75
2021/08/20 02:58:23;;;;;;;7.05;5.32;;;17.20;99.90;;;;;;5067980;28;20037;-75
2021/08/20 03:00:57;;;;;;;5.57;4.57;;;17.20;99.90;;;;;;5071726;28;20044;-76
2021/08/20 03:03:24;;;;;;;8.10;4.78;;;17.20;99.90;;;;;;5067073;28;20044;-75
2021/08/20 03:05:51;;;;;;;5.90;4.18;;;17.20;99.90;;;;;;5052807;28;20041;-75
2021/08/20 03:08:19;;;;;;;6.97;4.13;;;17.20;99.90;;;;;;5085675;28;20041;-75
2021/08/20 03:10:46;;;;;;;5.38;4.07;;;17.20;99.90;;;;;;5066824;28;20044;-75
2021/08/20 03:13:12;;;;;;;5.90;4.25;;;17.20;99.90;;;;;;5067362;28;20048;-75
2021/08/20 03:15:38;;;;;;;5.93;3.72;;;17.10;99.90;;;;;;5067155;28;20044;-75
2021/08/20 03:18:05;;;;;;;6.43;4.40;;;17.20;99.90;;;;;;5052357;28;20037;-75
2021/08/20 03:20:31;;;;;;;7.50;4.03;;;17.20;99.90;;;;;;5052043;28;20041;-74
2021/08/20 03:23:01;;;;;;;8.30;4.18;;;17.20;99.90;;;;;;5068730;28;20041;-75
2021/08/20 03:25:28;;;;;;;5.32;4.28;;;17.20;99.90;;;;;;5070900;28;20335;-75
2021/08/20 03:27:54;;;;;;;8.57;4.53;;;17.20;99.90;;;;;;5054189;28;20040;-75
2021/08/20 03:30:30;;;;;;;7.68;4.55;;;17.20;99.90;;;;;;5054982;28;20048;-75
2021/08/20 03:33:02;;;;;;;5.22;3.75;;;17.20;99.90;;;;;;5053008;28;20049;-75
2021/08/20 03:35:30;;;;;;;6.80;4.28;;;17.10;99.90;;;;;;5068281;28;20039;-75
2021/08/20 03:37:59;;;;;;;6.43;4.85;;;17.10;99.90;;;;;;5064167;28;20040;-75
2021/08/20 03:40:29;;;;;;;7.30;5.00;;;17.10;99.90;;;;;;5052184;28;20044;-75
2021/08/20 03:42:59;;;;;;;6.28;4.70;;;17.10;99.90;;;;;;5061130;28;20052;-74
2021/08/20 03:45:42;;;;;;;6.78;4.93;;;17.10;99.90;;;;;;5061234;28;20048;-75
2021/08/20 03:48:28;;;;;;;6.50;4.68;;;17.20;99.90;;;;;;5054100;28;20037;-75
2021/08/20 03:50:56;;;;;;;5.45;4.28;;;17.20;99.90;;;;;;5050653;28;20044;-75
2021/08/20 03:53:22;;;;;;;9.27;4.40;;;17.20;99.90;;;;;;5053303;28;20044;-75
2021/08/20 03:55:48;;;;;;;7.35;4.20;;;17.20;99.90;;;;;;5066371;28;20052;-75
2021/08/20 03:58:37;;;;;;;6.65;4.80;;;17.10;99.90;;;;;;5052525;28;20052;-75
2021/08/20 04:01:08;;;;;;;7.55;4.55;;;17.20;99.90;;;;;;5084612;28;20052;-75
2021/08/20 04:03:35;;;;;;;8.32;4.53;;;17.10;99.90;;;;;;5066225;28;20053;-75
2021/08/20 04:06:09;;;;;;;5.78;4.50;;;17.10;99.90;;;;;;5066616;28;20041;-74
2021/08/20 04:08:36;;;;;;;8.00;4.63;;;17.10;99.90;;;;;;5051068;28;20033;-75
2021/08/20 04:11:21;;;;;;;6.50;4.63;;;17.10;99.90;;;;;;5052507;28;20059;-75
2021/08/20 04:14:03;;;;;;;6.85;4.47;;;17.10;99.90;;;;;;5051334;28;20367;-76
2021/08/20 04:16:31;;;;;;;9.38;4.50;;;17.10;99.90;;;;;;5051465;28;20041;-75
2021/08/20 04:18:58;;;;;;;7.13;4.57;;;17.00;99.90;;;;;;5051854;28;20037;-75
2021/08/20 04:21:25;;;;;;;6.45;4.53;;;17.00;99.90;;;;;;5053248;28;20029;-75
2021/08/20 04:23:52;;;;;;;8.50;4.40;;;17.10;99.90;;;;;;5068886;28;20045;-75
2021/08/20 04:26:19;;;;;;;7.82;4.90;;;17.00;99.90;;;;;;5065131;28;20041;-74
2021/08/20 04:28:53;;;;;;;7.20;5.72;;;16.90;99.90;;;;;;5085545;28;20395;-75
2021/08/20 04:31:42;;;;;;;8.20;6.82;;;16.80;99.90;;;;;;5070854;28;20041;-75
2021/08/20 04:34:25;;;;;;;7.63;5.90;;;16.80;99.90;;;;;;5067050;28;20501;-75
2021/08/20 04:37:10;;;;;;;5.93;5.28;;;16.80;99.90;;;;;;5064643;28;20094;-75
2021/08/20 04:40:06;;;;;;;7.15;5.18;;;16.70;99.90;;;;;;5047775;28;20052;-76
2021/08/20 04:42:51;;;;;;;9.65;5.75;;;16.70;99.90;;;;;;5052540;28;20063;-76
2021/08/20 04:45:27;;;;;;;10.68;6.35;;;16.60;99.90;;;;;;5067683;28;20483;-75
2021/08/20 04:48:29;;;;;;;8.20;6.03;;;16.60;99.90;;;;;;5040191;28;20040;-75
2021/08/20 04:51:21;;;;;;;6.82;5.85;;;16.60;99.90;;;;;;5054341;28;20048;-76
2021/08/20 04:54:06;;;;;;;6.68;5.35;;;16.60;99.90;;;;;;5041293;28;20040;-76
2021/08/20 04:56:58;;;;;;;7.78;6.25;;;16.60;99.90;;;;;;5059481;28;20036;-74
2021/08/20 04:59:25;;;;;;;8.45;6.03;;;16.60;99.90;;;;;;5071612;28;20044;-78
2021/08/20 05:01:51;;;;;;;14.95;7.35;;;16.60;99.90;;;;;;5055804;28;20044;-78
2021/08/20 05:04:17;;;;;;;8.45;6.80;;;16.60;99.90;;;;;;5058907;28;20053;-78
2021/08/20 05:06:43;;;;;;;9.50;6.43;;;16.60;99.90;;;;;;5069814;28;20037;-76
2021/08/20 05:09:10;;;;;;;8.73;5.88;;;16.60;99.90;;;;;;5057305;28;20036;-76
2021/08/20 05:11:38;;;;;;;9.20;5.97;;;16.70;99.90;;;;;;5055672;28;20029;-76
2021/08/20 05:14:04;;;;;;;7.18;5.38;;;16.80;99.90;;;;;;5056283;28;20029;-76
2021/08/20 05:16:30;;;;;;;7.65;5.93;;;16.80;99.90;;;;;;5054986;28;20391;-75
2021/08/20 05:18:56;;;;;;;9.68;6.07;;;16.70;99.90;;;;;;5056096;28;20029;-76
2021/08/20 05:21:23;;;;;;;6.90;5.85;;;16.70;99.90;;;;;;5055836;28;20037;-76
2021/08/20 05:23:49;;;;;;;7.85;5.53;;;16.70;99.90;;;;;;5055222;28;20049;-76
2021/08/20 05:26:16;;;;;;;8.07;6.07;;;16.70;99.90;;;;;;5057522;28;20434;-76
2021/08/20 05:28:42;;;;;;;8.40;5.70;;;16.80;99.90;;;;;;5087185;28;20041;-76
2021/08/20 05:31:09;;;;;;;7.28;5.60;;;16.80;99.90;;;;;;5069655;28;20041;-76
2021/08/20 05:33:35;;;;;;;7.00;5.38;;;16.90;99.90;;;;;;5068411;28;20041;-80
2021/08/20 05:36:01;;;;;;;6.95;5.30;;;17.00;99.90;;;;;;5056050;28;20017;-76
2021/08/20 05:38:28;;;;;;;7.65;5.72;;;17.10;99.90;;;;;;5055442;28;20048;-76
2021/08/20 05:40:54;;;;;;;6.75;5.25;;;17.40;99.90;;;;;;5054465;28;20052;-75
2021/08/20 05:43:20;;;;;;;7.85;4.93;;;17.50;99.90;;;;;;5066716;28;20048;-75
2021/08/20 05:45:47;;;;;;;7.25;5.32;;;17.60;99.90;;;;;;5054022;28;20390;-76
2021/08/20 05:48:13;;;;;;;8.35;6.45;;;17.70;99.90;;;;;;5054969;28;20033;-76
2021/08/20 05:50:39;;;;;;;7.85;5.45;;;17.80;99.90;;;;;;5054564;28;20037;-76
2021/08/20 05:53:05;;;;;;;6.15;4.85;;;17.90;99.90;;;;;;5063412;28;20041;-76
2021/08/20 05:55:31;;;;;;;8.48;6.78;;;18.20;99.90;;;;;;5064193;28;20037;-76
2021/08/20 05:57:59;;;;;;;7.40;5.07;;;18.90;99.90;;;;;;5069031;28;20021;-79
2021/08/20 06:00:25;;;;;;;6.88;4.57;;;19.80;99.90;;;;;;5054460;28;20044;-78
2021/08/20 06:02:59;;;;;;;5.20;4.68;;;19.60;99.90;;;;;;5063602;28;20049;-76
2021/08/20 06:05:25;;;;;;;7.63;4.18;;;19.60;99.90;;;;;;5062165;28;20045;-77
2021/08/20 06:07:52;;;;;;;8.05;4.47;;;20.30;99.30;;;;;;5071800;28;20036;-77
2021/08/20 06:10:18;;;;;;;4.78;3.90;;;20.50;97.90;;;;;;5059255;28;20467;-77
2021/08/20 06:12:45;;;;;;;3.97;3.33;;;20.80;96.30;;;;;;5055897;28;20021;-77
2021/08/20 06:15:12;;;;;;;4.43;4.03;;;21.70;93.60;;;;;;5055799;28;20040;-77
2021/08/20 06:17:39;;;;;;;5.78;3.55;;;21.90;91.30;;;;;;5068075;28;20029;-77
2021/08/20 06:20:06;;;;;;;4.72;3.33;;;21.70;90.60;;;;;;5058497;28;20036;-75
2021/08/20 06:22:32;;;;;;;5.85;3.15;;;22.20;90.10;;;;;;5056035;28;20032;-76
2021/08/20 06:24:59;;;;;;;5.22;3.50;;;22.40;85.40;;;;;;5056937;28;20048;-77
2021/08/20 06:27:25;;;;;;;4.95;3.17;;;22.30;83.30;;;;;;5054171;28;20033;-76
2021/08/20 06:29:51;;;;;;;4.07;3.08;;;21.90;84.40;;;;;;5054226;28;20043;-74
2021/08/20 06:32:17;;;;;;;3.72;2.85;;;22.00;83.90;;;;;;5055526;28;20036;-75
2021/08/20 06:34:43;;;;;;;3.85;2.83;;;22.30;82.00;;;;;;5067697;28;20040;-76
2021/08/20 06:37:10;;;;;;;4.43;2.97;;;21.60;82.60;;;;;;5072906;28;20063;-76
2021/08/20 06:39:36;;;;;;;3.90;3.40;;;21.20;84.40;;;;;;5054088;28;20029;-80
2021/08/20 06:42:03;;;;;;;5.03;3.90;;;21.10;85.20;;;;;;5056499;28;20493;-75
2021/08/20 06:44:29;;;;;;;5.03;3.92;;;20.90;85.70;;;;;;5076475;28;20048;-75
2021/08/20 06:46:56;;;;;;;5.75;3.85;;;20.40;88.50;;;;;;5077856;28;20040;-77
2021/08/20 06:49:22;;;;;;;5.50;3.88;;;20.00;90.90;;;;;;5058240;28;20033;-75
2021/08/20 06:51:48;;;;;;;8.55;4.55;;;19.80;91.80;;;;;;5054906;28;20029;-77
2021/08/20 06:54:14;;;;;;;8.07;5.03;;;19.50;92.00;;;;;;5054796;28;20037;-76
2021/08/20 06:56:40;;;;;;;6.35;4.50;;;19.50;92.80;;;;;;5071092;28;20454;-78
2021/08/20 06:59:06;;;;;;;5.15;4.03;;;19.60;92.60;;;;;;5066595;28;20033;-79
2021/08/20 07:01:33;;;;;;;6.20;4.00;;;19.70;92.20;;;;;;5054880;28;20032;-78
2021/08/20 07:04:00;;;;;;;5.25;3.17;;;20.00;91.00;;;;;;5066621;28;20052;-78
2021/08/20 07:06:27;;;;;;;5.55;3.80;;;20.10;90.20;;;;;;5065629;28;20037;-76
2021/08/20 07:08:55;;;;;;;4.70;4.20;;;19.90;89.90;;;;;;5060377;28;20033;-78
2021/08/20 07:11:23;;;;;;;6.05;4.05;;;19.90;89.40;;;;;;5060275;28;20029;-77
2021/08/20 07:13:49;;;;;;;8.68;4.50;;;20.00;89.00;;;;;;5060130;28;20493;-78
2021/08/20 07:16:16;;;;;;;6.25;3.55;;;20.00;89.30;;;;;;5055620;28;20029;-77
2021/08/20 07:18:42;;;;;;;5.03;3.72;;;20.30;90.00;;;;;;5052100;28;20094;-75
2021/08/20 07:21:08;;;;;;;6.40;3.70;;;20.20;89.20;;;;;;5052294;28;20040;-75
2021/08/20 07:23:35;;;;;;;4.50;4.00;;;20.20;90.10;;;;;;5053305;28;20478;-77
2021/08/20 07:26:04;;;;;;;5.88;3.90;;;20.30;89.00;;;;;;5053095;28;20037;-77
2021/08/20 07:28:30;;;;;;;4.88;3.55;;;20.20;90.00;;;;;;5053228;28;20029;-76
2021/08/20 07:30:56;;;;;;;5.38;4.15;;;20.40;89.20;;;;;;5069772;28;20070;-76
2021/08/20 07:33:23;;;;;;;5.38;3.90;;;20.80;87.90;;;;;;5069740;28;20053;-78
2021/08/20 07:35:49;;;;;;;5.25;3.83;;;21.10;85.80;;;;;;5054316;28;20028;-76
2021/08/20 07:38:16;;;;;;;6.47;3.40;;;20.90;85.80;;;;;;5053464;28;20048;-76
2021/08/20 07:40:42;;;;;;;5.85;3.72;;;20.80;86.30;;;;;;5052578;28;20025;-77
2021/08/20 07:43:09;;;;;;;4.78;3.47;;;21.20;84.40;;;;;;5052920;28;20029;-76
2021/08/20 07:45:35;;;;;;;3.60;2.97;;;21.60;84.10;;;;;;5052954;28;20044;-80
2021/08/20 07:48:01;;;;;;;4.55;3.47;;;22.50;82.60;;;;;;5052031;28;20052;-78
2021/08/20 07:50:27;;;;;;;5.85;4.28;;;22.40;80.90;;;;;;5051780;28;20041;-78
2021/08/20 07:52:54;;;;;;;4.93;4.07;;;21.90;82.10;;;;;;5066746;28;20029;-75
2021/08/20 07:55:20;;;;;;;4.72;3.38;;;22.50;81.40;;;;;;5052842;28;20461;-76
2021/08/20 07:57:49;;;;;;;6.68;3.40;;;23.10;77.00;;;;;;5070167;28;20047;-77
2021/08/20 08:00:26;;;;;;;6.32;3.97;;;22.70;77.20;;;;;;5051322;28;20044;-75
2021/08/20 08:02:52;;;;;;;5.57;3.58;;;22.80;75.80;;;;;;5052519;28;20029;-79
2021/08/20 08:05:19;;;;;;;4.88;3.72;;;23.40;77.70;;;;;;5053298;28;20032;-74
2021/08/20 08:07:45;;;;;;;4.03;3.08;;;23.40;75.50;;;;;;5052737;28;20504;-75
2021/08/20 08:10:12;;;;;;;4.00;3.20;;;22.60;75.30;;;;;;5051811;28;20032;-76
2021/08/20 08:12:38;;;;;;;7.82;3.30;;;22.30;74.60;;;;;;5051859;28;20036;-77
2021/08/20 08:15:09;;;;;;;3.65;3.15;;;22.50;74.00;;;;;;5052044;28;20036;-76
2021/08/20 08:17:37;;;;;;;6.60;3.22;;;22.50;76.20;;;;;;5064543;28;20382;-76
2021/08/20 08:20:05;;;;;;;5.05;3.58;;;21.60;79.10;;;;;;5069879;28;20031;-75
2021/08/20 08:22:31;;;;;;;4.63;3.53;;;21.10;79.40;;;;;;5055942;28;20474;-75
2021/08/20 08:24:58;;;;;;;7.57;3.10;;;20.90;80.20;;;;;;5059747;28;20225;-75
2021/08/20 08:27:24;;;;;;;5.65;3.53;;;21.30;79.80;;;;;;5052893;28;20410;-76
2021/08/20 08:29:50;;;;;;;5.45;3.50;;;21.90;78.20;;;;;;5051870;28;20029;-77
2021/08/20 08:32:16;;;;;;;3.47;3.13;;;22.10;76.40;;;;;;5064936;28;20062;-76
2021/08/20 08:34:43;;;;;;;4.82;2.78;;;22.30;75.00;;;;;;5062176;28;20049;-76
2021/08/20 08:37:09;;;;;;;5.28;3.35;;;22.40;76.90;;;;;;5052938;28;20040;-77
2021/08/20 08:39:35;;;;;;;4.82;3.25;;;22.90;71.90;;;;;;5052354;28;20029;-76
2021/08/20 08:42:02;;;;;;;4.97;3.10;;;22.80;72.30;;;;;;5052054;28;20037;-77
2021/08/20 08:44:28;;;;;;;10.07;3.65;;;22.70;72.70;;;;;;5052483;28;20382;-76
2021/08/20 08:46:55;;;;;;;4.25;3.60;;;22.30;74.50;;;;;;5049792;28;20064;-77
2021/08/20 08:49:23;;;;;;;5.38;3.28;;;22.90;74.50;;;;;;5055317;28;20036;-76
2021/08/20 08:51:50;;;;;;;5.53;3.75;;;24.00;70.50;;;;;;5060524;28;20036;-80
2021/08/20 08:54:16;;;;;;;4.53;3.13;;;24.40;67.20;;;;;;5051793;28;20413;-76
2021/08/20 08:56:44;;;;;;;6.80;3.30;;;23.70;68.80;;;;;;5051628;28;20029;-76
2021/08/20 08:59:10;;;;;;;4.25;3.00;;;23.00;72.60;;;;;;5052360;28;20040;-76
2021/08/20 09:01:39;;;;;;;5.07;3.85;;;23.10;70.10;;;;;;5052030;28;20032;-76
2021/08/20 09:04:07;;;;;;;5.90;3.63;;;22.70;71.00;;;;;;5060890;28;20068;-77
2021/08/20 09:06:42;;;;;;;4.82;3.63;;;22.90;70.90;;;;;;5055977;28;20037;-76
2021/08/20 09:09:10;;;;;;;6.95;4.15;;;22.70;73.50;;;;;;5050906;28;20454;-76
2021/08/20 09:11:37;;;;;;;6.28;4.30;;;23.00;70.30;;;;;;5064146;28;20028;-76
2021/08/20 09:14:04;;;;;;;6.82;5.47;;;23.00;71.30;;;;;;5051499;28;20025;-76
2021/08/20 09:16:49;;;;;;;8.25;4.85;;;22.40;72.30;;;;;;5051848;28;20070;-76
2021/08/20 09:19:15;;;;;;;4.90;4.25;;;22.40;72.90;;;;;;5052371;28;20060;-76
2021/08/20 09:21:43;;;;;;;5.78;4.78;;;22.90;74.20;;;;;;5051395;28;20079;-76
2021/08/20 09:24:31;;;;;;;10.20;7.00;;;23.80;72.40;;;;;;5051781;28;20045;-76
2021/08/20 09:27:18;;;;;;;6.15;5.30;;;23.40;70.40;;;;;;5060752;28;20037;-76
2021/08/20 09:29:56;;;;;;;10.35;6.57;;;23.10;71.40;;;;;;5053356;28;20033;-77
2021/08/20 09:32:24;;;;;;;7.65;5.43;;;23.30;69.80;;;;;;5055193;28;20033;-77
2021/08/20 09:34:57;;;;;;;7.22;5.25;;;23.20;70.60;;;;;;5054558;28;20144;-76
2021/08/20 09:37:25;;;;;;;7.57;5.28;;;24.10;70.00;;;;;;5069869;28;20192;-75
2021/08/20 09:39:57;;;;;;;5.97;5.07;;;24.90;68.90;;;;;;5062195;28;20025;-75
2021/08/20 09:42:24;;;;;;;5.50;4.50;;;24.60;67.60;;;;;;5067817;28;20032;-76
2021/08/20 09:45:22;;;;;;;5.65;4.18;;;25.10;68.30;;;;;;5053578;28;20048;-75
2021/08/20 09:47:53;;;;;;;7.32;4.40;;;25.50;65.10;;;;;;5068472;28;20462;-78
2021/08/20 09:50:21;;;;;;;5.50;4.45;;;25.00;64.20;;;;;;5057563;28;20028;-76
2021/08/20 09:52:48;;;;;;;6.15;4.28;;;23.40;68.20;;;;;;5054148;28;20352;-75
2021/08/20 09:55:37;;;;;;;6.97;4.90;;;23.20;70.50;;;;;;5068714;28;20036;-76
2021/08/20 09:58:07;;;;;;;4.68;4.03;;;23.20;69.80;;;;;;5060212;28;20037;-75
2021/08/20 10:00:34;;;;;;;;;;;23.40;69.40;;;;;;5055067;28;20395;-76
2021/08/20 10:03:03;;;;;;;5.32;3.78;;;23.70;68.70;;;;;;5068756;28;20313;-76
2021/08/20 10:05:32;;;;;;;5.53;4.68;;;23.40;68.80;;;;;;5055154;28;20525;-75
2021/08/20 10:08:01;;;;;;;5.85;4.30;;;23.40;69.10;;;;;;5053832;28;20037;-75
2021/08/20 10:10:29;;;;;;;4.95;3.97;;;23.40;68.80;;;;;;5055003;28;20041;-77
2021/08/20 10:12:57;;;;;;;5.47;3.35;;;23.50;68.50;;;;;;5061070;28;20024;-77
2021/08/20 10:15:25;;;;;;;4.30;3.78;;;24.00;66.80;;;;;;5077085;28;20037;-75
2021/08/20 10:17:52;;;;;;;6.78;3.95;;;24.10;67.40;;;;;;5067052;28;20037;-75
2021/08/20 10:20:19;;;;;;;4.57;3.88;;;24.20;66.80;;;;;;5087033;28;20041;-74
2021/08/20 10:22:46;;;;;;;4.85;4.35;;;24.40;65.90;;;;;;5054887;28;20029;-75
2021/08/20 10:25:12;;;;;;;7.07;4.00;;;24.10;67.50;;;;;;5054360;28;20044;-75
2021/08/20 10:27:40;;;;;;;6.28;4.45;;;24.20;65.80;;;;;;5069832;28;20040;-75
2021/08/20 10:30:09;;;;;;;7.25;4.68;;;23.70;67.70;;;;;;5059969;28;20052;-75
2021/08/20 10:32:36;;;;;;;7.75;4.88;;;23.80;67.50;;;;;;5055194;28;20033;-75
2021/08/20 10:35:03;;;;;;;4.72;4.13;;;23.80;67.60;;;;;;5054914;28;20055;-75
2021/08/20 10:37:31;;;;;;;6.13;3.90;;;23.60;67.10;;;;;;5068887;28;20524;-79
2021/08/20 10:40:01;;;;;;;5.90;4.63;;;23.50;67.00;;;;;;5055163;28;20029;-77
2021/08/20 10:42:42;;;;;;;5.32;4.03;;;23.10;67.20;;;;;;5069422;28;20401;-77
2021/08/20 10:45:10;;;;;;;3.40;3.08;;;23.00;67.80;;;;;;5073967;28;20049;-76
2021/08/20 10:47:37;;;;;;;3.47;2.47;;;23.10;69.30;;;;;;5055651;28;20040;-76
2021/08/20 10:50:13;;;;;;;6.38;3.20;;;23.10;68.40;;;;;;5057088;28;20033;-77
2021/08/20 10:52:41;;;;;;;4.18;3.22;;;22.70;68.90;;;;;;5040692;28;20044;-77
2021/08/20 10:55:11;;;;;;;4.03;2.90;;;22.70;69.20;;;;;;5068286;28;20037;-76
2021/08/20 10:57:56;;;;;;;3.70;2.90;;;23.10;68.50;;;;;;5066240;28;20052;-77
2021/08/20 11:00:27;;;;;;;4.50;3.25;;;22.90;68.10;;;;;;5055577;28;20367;-76
2021/08/20 11:03:02;;;;;;;5.00;2.33;;;23.00;67.30;;;;;;5070114;28;20152;-76
2021/08/20 11:05:47;;;;;;;3.58;2.58;;;23.30;67.30;;;;;;5063661;28;20032;-76
2021/08/20 11:08:28;;;;;;;3.72;1.98;;;23.50;66.40;;;;;;5072812;28;20028;-75
2021/08/20 11:10:59;;;;;;;2.33;1.85;;;23.70;66.00;;;;;;5062990;28;20029;-76
2021/08/20 11:13:26;;;;;;;3.60;2.20;;;23.90;64.40;;;;;;5053255;28;20029;-76
2021/08/20 11:15:53;;;;;;;3.78;2.10;;;24.00;65.10;;;;;;5062260;28;20029;-75
2021/08/20 11:18:44;;;;;;;4.07;2.03;;;23.90;64.80;;;;;;5053752;28;20024;-76
2021/08/20 11:21:43;;;;;;;3.00;1.73;;;23.90;63.60;;;;;;5094804;28;20052;-76
2021/08/20 11:24:20;;;;;;;2.63;2.20;;;23.70;63.80;;;;;;5070864;28;20047;-76
2021/08/20 11:26:47;;;;;;;3.78;1.55;;;23.50;64.10;;;;;;5056014;28;20040;-79
2021/08/20 11:29:14;;;;;;;2.80;1.20;;;23.30;65.00;;;;;;5053397;28;20044;-78
2021/08/20 11:31:41;;;;;;;2.38;1.60;;;23.20;65.50;;;;;;5052810;28;20307;-76
2021/08/20 11:34:08;;;;;;;3.75;1.60;;;23.20;64.30;;;;;;5053835;28;20470;-77
2021/08/20 11:36:39;;;;;;;1.63;1.40;;;23.20;63.90;;;;;;5053704;28;20033;-75
2021/08/20 11:39:09;;;;;;;2.25;1.38;;;23.10;64.60;;;;;;5053517;28;20475;-76
2021/08/20 11:44:05;;;;;;;2.75;1.75;;;23.20;65.30;;;;;;5058113;28;20494;-77
2021/08/20 11:46:40;;;;;;;2.65;1.73;;;23.20;64.20;;;;;;5053824;28;20048;-75
2021/08/20 11:49:08;;;;;;;2.60;1.75;;;23.00;64.00;;;;;;5052726;28;20040;-79
2021/08/20 11:51:36;;;;;;;2.40;2.05;;;23.00;65.90;;;;;;5070685;28;20047;-75
2021/08/20 11:54:07;;;;;;;3.65;2.10;;;23.10;66.00;;;;;;5064542;28;20029;-75
2021/08/20 11:56:35;;;;;;;3.78;2.88;;;23.20;64.90;;;;;;5067406;28;20033;-75
2021/08/20 11:59:09;;;;;;;3.78;2.55;;;23.30;64.70;;;;;;5053339;28;20054;-76
2021/08/20 12:01:37;;;;;;;4.25;2.53;;;23.60;64.10;;;;;;5053713;28;20040;-75
2021/08/20 12:04:06;;;;;;;4.38;2.53;;;23.50;63.30;;;;;;5052835;28;20048;-75
2021/08/20 12:06:33;;;;;;;3.55;2.58;;;23.90;64.10;;;;;;5053453;28;20064;-75
2021/08/20 12:09:16;;;;;;;3.78;2.63;;;24.50;62.00;;;;;;5052724;28;20470;-75
2021/08/20 12:11:47;;;;;;;3.72;2.65;;;24.40;62.10;;;;;;5070704;28;20029;-75
2021/08/20 12:14:21;;;;;;;7.65;2.58;;;24.30;62.20;;;;;;5055997;28;20596;-74
2021/08/20 12:16:50;;;;;;;5.07;2.60;;;24.40;61.20;;;;;;5052285;28;20378;-76
2021/08/20 12:19:21;;;;;;;5.30;2.70;;;24.80;61.20;;;;;;5052631;28;20040;-75
2021/08/20 12:21:50;;;;;;;5.72;2.20;;;24.90;59.60;;;;;;5051904;28;20044;-75
2021/08/20 12:24:32;;;;;;;5.45;2.55;;;24.90;59.50;;;;;;5053019;28;20040;-76
2021/08/20 12:27:18;;;;;;;4.38;2.70;;;24.90;60.80;;;;;;5052653;28;20037;-76
2021/08/20 12:30:10;;;;;;;4.05;3.33;;;24.70;59.60;;;;;;5052730;28;20029;-77
2021/08/20 12:32:42;;;;;;;2.78;1.85;;;24.30;60.60;;;;;;5052430;28;20024;-76
2021/08/20 12:35:17;;;;;;;3.17;2.17;;;24.30;60.60;;;;;;5053046;28;20060;-77
2021/08/20 12:38:02;;;;;;;2.97;1.88;;;24.20;60.40;;;;;;5052444;28;20394;-75
2021/08/20 12:40:51;;;;;;;2.38;1.65;;;24.00;61.80;;;;;;5052590;28;20033;-76
2021/08/20 12:43:30;;;;;;;2.58;1.58;;;23.90;60.80;;;;;;5052468;28;20463;-76
2021/08/20 12:46:19;;;;;;;4.57;1.88;;;23.90;61.60;;;;;;5052197;28;20041;-76
2021/08/20 12:48:54;;;;;;;2.78;1.80;;;23.90;61.70;;;;;;5051655;28;20062;-77
2021/08/20 12:51:21;;;;;;;4.60;1.90;;;23.80;61.60;;;;;;5061790;28;20486;-75
2021/08/20 12:54:01;;;;;;;2.80;2.00;;;23.80;62.00;;;;;;5058827;28;20112;-76
2021/08/20 12:56:35;;;;;;;4.32;1.92;;;23.80;62.50;;;;;;5053537;28;20033;-75
2021/08/20 12:59:05;;;;;;;2.83;1.98;;;23.90;62.30;;;;;;5059469;28;20032;-75
2021/08/20 13:01:36;;;;;;;3.20;1.92;;;24.00;62.40;;;;;;5052869;28;20033;-75
2021/08/20 13:04:03;;;;;;;2.08;1.75;;;24.20;62.40;;;;;;5052343;28;20039;-75